sensor_id;sensor_type;location;lat;lon;timestamp;P1;P2;P0
46302;PMS7003;32029;51.358;5.628;2024-03-17T00:02:18;15.33;15.00;11.33
46302;PMS7003;32029;51.358;5.628;2024-03-17T00:04:47;12.17;12.17;10.33
46302;PMS7003;32029;51.358;5.628;2024-03-17T00:07:14;17.33;14.33;11.00
46302;PMS7003;32029;51.358;5.628;2024-03-17T00:09:41;17.00;17.00;13.00
46302;PMS7003;32029;51.358;5.628;2024-03-17T00:12:08;18.00;16.00;12.33
46302;PMS7003;32029;51.358;5.628;2024-03-17T00:14:35;20.00;16.33;12.00
46302;PMS7003;32029;51.358;5.628;2024-03-17T00:17:03;18.00;17.00;12.00
46302;PMS7003;32029;51.358;5.628;2024-03-17T00:19:30;16.00;15.00;10.00
46302;PMS7003;32029;51.358;5.628;2024-03-17T00:21:57;10.67;8.00;6.00
46302;PMS7003;32029;51.358;5.628;2024-03-17T00:24:24;16.00;15.00;12.00
46302;PMS7003;32029;51.358;5.628;2024-03-17T00:26:50;17.67;17.67;15.00
46302;PMS7003;32029;51.358;5.628;2024-03-17T00:29:20;22.14;20.86;13.57
46302;PMS7003;32029;51.358;5.628;2024-03-17T00:31:47;23.00;22.00;16.00
46302;PMS7003;32029;51.358;5.628;2024-03-17T00:34:14;22.67;18.00;13.33
46302;PMS7003;32029;51.358;5.628;2024-03-17T00:36:42;23.67;20.00;15.67
46302;PMS7003;32029;51.358;5.628;2024-03-17T00:39:09;19.50;19.50;15.50
46302;PMS7003;32029;51.358;5.628;2024-03-17T00:41:36;20.67;18.00;13.67
46302;PMS7003;32029;51.358;5.628;2024-03-17T00:44:03;17.00;17.00;14.67
46302;PMS7003;32029;51.358;5.628;2024-03-17T00:46:30;18.67;17.33;13.00
46302;PMS7003;32029;51.358;5.628;2024-03-17T00:48:58;20.67;16.00;12.00
46302;PMS7003;32029;51.358;5.628;2024-03-17T00:51:26;21.00;21.00;15.33
46302;PMS7003;32029;51.358;5.628;2024-03-17T00:53:54;22.00;21.67;16.00
46302;PMS7003;32029;51.358;5.628;2024-03-17T00:56:24;22.00;21.67;16.00
46302;PMS7003;32029;51.358;5.628;2024-03-17T00:58:51;21.50;21.00;15.50
46302;PMS7003;32029;51.358;5.628;2024-03-17T01:01:19;25.00;22.00;17.00
46302;PMS7003;32029;51.358;5.628;2024-03-17T01:03:47;25.00;25.00;17.33
46302;PMS7003;32029;51.358;5.628;2024-03-17T01:06:14;16.33;15.67;13.33
46302;PMS7003;32029;51.358;5.628;2024-03-17T01:08:41;20.00;18.00;15.00
46302;PMS7003;32029;51.358;5.628;2024-03-17T01:11:16;20.67;19.00;16.00
46302;PMS7003;32029;51.358;5.628;2024-03-17T01:13:45;21.00;17.00;13.00
46302;PMS7003;32029;51.358;5.628;2024-03-17T01:16:13;26.33;24.67;17.00
46302;PMS7003;32029;51.358;5.628;2024-03-17T01:18:40;23.00;22.00;16.00
46302;PMS7003;32029;51.358;5.628;2024-03-17T01:21:09;27.00;23.00;16.00
46302;PMS7003;32029;51.358;5.628;2024-03-17T01:23:36;19.50;19.50;16.00
46302;PMS7003;32029;51.358;5.628;2024-03-17T01:26:03;23.33;22.67;17.67
46302;PMS7003;32029;51.358;5.628;2024-03-17T01:28:30;18.33;18.33;16.00
46302;PMS7003;32029;51.358;5.628;2024-03-17T01:30:58;22.00;21.00;17.33
46302;PMS7003;32029;51.358;5.628;2024-03-17T01:33:26;23.33;20.33;16.00
46302;PMS7003;32029;51.358;5.628;2024-03-17T01:35:53;24.67;24.67;18.00
46302;PMS7003;32029;51.358;5.628;2024-03-17T01:38:21;23.67;21.00;17.00
46302;PMS7003;32029;51.358;5.628;2024-03-17T01:40:49;23.33;23.33;17.33
46302;PMS7003;32029;51.358;5.628;2024-03-17T01:43:16;26.67;23.67;17.33
46302;PMS7003;32029;51.358;5.628;2024-03-17T01:45:43;21.33;20.33;13.33
46302;PMS7003;32029;51.358;5.628;2024-03-17T01:48:13;24.50;24.50;17.00
46302;PMS7003;32029;51.358;5.628;2024-03-17T01:50:44;24.00;23.50;17.00
46302;PMS7003;32029;51.358;5.628;2024-03-17T01:53:14;19.00;19.00;16.00
46302;PMS7003;32029;51.358;5.628;2024-03-17T01:55:43;27.33;23.00;18.00
46302;PMS7003;32029;51.358;5.628;2024-03-17T01:58:11;29.00;28.67;21.00
46302;PMS7003;32029;51.358;5.628;2024-03-17T02:00:39;30.67;26.33;18.67
46302;PMS7003;32029;51.358;5.628;2024-03-17T02:03:09;26.67;26.00;17.67
46302;PMS7003;32029;51.358;5.628;2024-03-17T02:05:36;30.33;26.67;17.33
46302;PMS7003;32029;51.358;5.628;2024-03-17T02:08:05;27.67;27.67;19.67
46302;PMS7003;32029;51.358;5.628;2024-03-17T02:10:34;24.33;23.67;17.67
46302;PMS7003;32029;51.358;5.628;2024-03-17T02:13:02;26.00;26.00;17.67
46302;PMS7003;32029;51.358;5.628;2024-03-17T02:15:31;27.67;23.00;18.67
46302;PMS7003;32029;51.358;5.628;2024-03-17T02:17:59;33.33;27.67;21.00
46302;PMS7003;32029;51.358;5.628;2024-03-17T02:20:27;26.67;26.67;18.00
46302;PMS7003;32029;51.358;5.628;2024-03-17T02:23:13;25.33;25.33;18.00
46302;PMS7003;32029;51.358;5.628;2024-03-17T02:25:41;25.33;25.33;17.00
46302;PMS7003;32029;51.358;5.628;2024-03-17T02:28:10;29.67;26.67;19.67
46302;PMS7003;32029;51.358;5.628;2024-03-17T02:30:37;33.67;33.67;22.67
46302;PMS7003;32029;51.358;5.628;2024-03-17T02:33:04;26.00;25.00;21.00
46302;PMS7003;32029;51.358;5.628;2024-03-17T02:35:31;26.67;24.67;19.33
46302;PMS7003;32029;51.358;5.628;2024-03-17T02:37:58;28.67;28.00;20.00
46302;PMS7003;32029;51.358;5.628;2024-03-17T02:40:25;38.00;30.00;22.67
46302;PMS7003;32029;51.358;5.628;2024-03-17T02:42:53;27.00;25.67;20.33
46302;PMS7003;32029;51.358;5.628;2024-03-17T02:45:21;29.00;27.00;21.00
46302;PMS7003;32029;51.358;5.628;2024-03-17T02:47:49;26.00;25.67;19.33
46302;PMS7003;32029;51.358;5.628;2024-03-17T02:50:16;28.00;23.00;16.00
46302;PMS7003;32029;51.358;5.628;2024-03-17T02:52:44;27.50;25.00;20.00
46302;PMS7003;32029;51.358;5.628;2024-03-17T02:55:11;33.67;25.67;18.33
46302;PMS7003;32029;51.358;5.628;2024-03-17T02:57:39;31.33;26.67;19.67
46302;PMS7003;32029;51.358;5.628;2024-03-17T03:00:08;32.00;29.33;21.00
46302;PMS7003;32029;51.358;5.628;2024-03-17T03:02:39;29.67;23.33;15.67
46302;PMS7003;32029;51.358;5.628;2024-03-17T03:05:07;28.67;28.33;20.33
46302;PMS7003;32029;51.358;5.628;2024-03-17T03:07:35;33.00;29.00;21.00
46302;PMS7003;32029;51.358;5.628;2024-03-17T03:10:03;29.67;26.33;18.67
46302;PMS7003;32029;51.358;5.628;2024-03-17T03:12:32;24.00;24.00;17.33
46302;PMS7003;32029;51.358;5.628;2024-03-17T03:14:59;25.67;22.33;16.33
46302;PMS7003;32029;51.358;5.628;2024-03-17T03:17:27;24.33;22.33;19.00
46302;PMS7003;32029;51.358;5.628;2024-03-17T03:19:56;35.33;26.67;18.00
46302;PMS7003;32029;51.358;5.628;2024-03-17T03:22:23;28.67;28.00;19.00
46302;PMS7003;32029;51.358;5.628;2024-03-17T03:24:53;27.67;27.67;19.00
46302;PMS7003;32029;51.358;5.628;2024-03-17T03:27:21;32.67;28.67;19.00
46302;PMS7003;32029;51.358;5.628;2024-03-17T03:29:48;29.67;25.00;16.67
46302;PMS7003;32029;51.358;5.628;2024-03-17T03:32:15;26.33;24.00;18.67
46302;PMS7003;32029;51.358;5.628;2024-03-17T03:34:44;32.33;25.67;19.00
46302;PMS7003;32029;51.358;5.628;2024-03-17T03:37:12;26.00;24.00;19.00
46302;PMS7003;32029;51.358;5.628;2024-03-17T03:39:40;32.00;29.67;19.00
46302;PMS7003;32029;51.358;5.628;2024-03-17T03:42:08;28.67;25.00;18.00
46302;PMS7003;32029;51.358;5.628;2024-03-17T03:44:35;24.00;21.33;17.00
46302;PMS7003;32029;51.358;5.628;2024-03-17T03:47:03;30.33;28.00;19.00
46302;PMS7003;32029;51.358;5.628;2024-03-17T03:49:31;33.33;27.33;19.67
46302;PMS7003;32029;51.358;5.628;2024-03-17T03:51:58;26.67;24.67;19.00
46302;PMS7003;32029;51.358;5.628;2024-03-17T03:54:26;25.67;24.00;16.00
46302;PMS7003;32029;51.358;5.628;2024-03-17T03:56:54;28.33;27.00;18.67
46302;PMS7003;32029;51.358;5.628;2024-03-17T03:59:21;29.33;27.00;18.00
46302;PMS7003;32029;51.358;5.628;2024-03-17T04:01:49;28.33;24.00;15.67
46302;PMS7003;32029;51.358;5.628;2024-03-17T04:04:17;24.00;23.00;18.00
46302;PMS7003;32029;51.358;5.628;2024-03-17T04:06:44;28.33;25.00;17.00
46302;PMS7003;32029;51.358;5.628;2024-03-17T04:09:13;25.00;23.00;18.00
46302;PMS7003;32029;51.358;5.628;2024-03-17T04:11:40;24.00;23.67;18.00
46302;PMS7003;32029;51.358;5.628;2024-03-17T04:14:07;25.00;19.00;12.00
46302;PMS7003;32029;51.358;5.628;2024-03-17T04:16:34;23.50;20.00;14.00
46302;PMS7003;32029;51.358;5.628;2024-03-17T04:19:02;25.33;22.33;14.33
46302;PMS7003;32029;51.358;5.628;2024-03-17T04:21:29;25.33;23.00;17.33
46302;PMS7003;32029;51.358;5.628;2024-03-17T04:23:57;28.67;22.33;15.00
46302;PMS7003;32029;51.358;5.628;2024-03-17T04:26:24;21.00;20.50;16.00
46302;PMS7003;32029;51.358;5.628;2024-03-17T04:28:52;31.25;27.25;17.25
46302;PMS7003;32029;51.358;5.628;2024-03-17T04:31:19;25.33;22.33;15.00
46302;PMS7003;32029;51.358;5.628;2024-03-17T04:33:47;25.00;20.67;16.67
46302;PMS7003;32029;51.358;5.628;2024-03-17T04:36:16;33.00;26.33;17.67
46302;PMS7003;32029;51.358;5.628;2024-03-17T04:38:43;23.50;23.50;17.50
46302;PMS7003;32029;51.358;5.628;2024-03-17T04:41:14;29.33;24.33;17.00
46302;PMS7003;32029;51.358;5.628;2024-03-17T04:43:43;23.00;21.00;15.50
46302;PMS7003;32029;51.358;5.628;2024-03-17T04:46:11;24.00;19.00;15.00
46302;PMS7003;32029;51.358;5.628;2024-03-17T04:48:40;22.00;22.00;17.00
46302;PMS7003;32029;51.358;5.628;2024-03-17T04:51:14;23.33;20.33;14.33
46302;PMS7003;32029;51.358;5.628;2024-03-17T04:53:42;27.67;20.33;16.00
46302;PMS7003;32029;51.358;5.628;2024-03-17T04:56:10;27.67;24.00;17.00
46302;PMS7003;32029;51.358;5.628;2024-03-17T04:58:37;25.33;23.00;16.00
46302;PMS7003;32029;51.358;5.628;2024-03-17T05:01:06;28.33;24.67;17.00
46302;PMS7003;32029;51.358;5.628;2024-03-17T05:03:34;23.67;22.67;15.33
46302;PMS7003;32029;51.358;5.628;2024-03-17T05:06:02;24.00;22.67;15.67
46302;PMS7003;32029;51.358;5.628;2024-03-17T05:08:31;24.00;22.00;13.00
46302;PMS7003;32029;51.358;5.628;2024-03-17T05:10:59;13.00;13.00;8.67
46302;PMS7003;32029;51.358;5.628;2024-03-17T05:13:27;21.00;19.50;13.00
46302;PMS7003;32029;51.358;5.628;2024-03-17T05:15:55;21.00;19.00;14.00
46302;PMS7003;32029;51.358;5.628;2024-03-17T05:18:22;22.00;21.33;16.00
46302;PMS7003;32029;51.358;5.628;2024-03-17T05:20:58;24.00;20.33;14.67
46302;PMS7003;32029;51.358;5.628;2024-03-17T05:23:29;22.00;18.33;14.67
46302;PMS7003;32029;51.358;5.628;2024-03-17T05:25:57;18.67;17.00;14.00
46302;PMS7003;32029;51.358;5.628;2024-03-17T05:28:26;21.00;18.33;11.33
46302;PMS7003;32029;51.358;5.628;2024-03-17T05:30:55;16.67;16.00;11.00
46302;PMS7003;32029;51.358;5.628;2024-03-17T05:33:23;20.33;18.67;13.00
46302;PMS7003;32029;51.358;5.628;2024-03-17T05:35:59;23.00;21.00;16.00
46302;PMS7003;32029;51.358;5.628;2024-03-17T05:38:29;21.00;21.00;14.50
46302;PMS7003;32029;51.358;5.628;2024-03-17T05:40:57;15.67;13.33;9.67
46302;PMS7003;32029;51.358;5.628;2024-03-17T05:43:28;18.50;18.00;13.50
46302;PMS7003;32029;51.358;5.628;2024-03-17T05:45:57;23.00;23.00;14.50
46302;PMS7003;32029;51.358;5.628;2024-03-17T05:48:24;20.33;20.33;15.33
46302;PMS7003;32029;51.358;5.628;2024-03-17T05:50:51;20.33;20.33;14.67
46302;PMS7003;32029;51.358;5.628;2024-03-17T05:53:19;20.00;20.00;15.33
46302;PMS7003;32029;51.358;5.628;2024-03-17T05:55:47;26.00;23.33;15.67
46302;PMS7003;32029;51.358;5.628;2024-03-17T05:58:14;19.50;19.50;14.50
46302;PMS7003;32029;51.358;5.628;2024-03-17T06:00:41;21.67;20.00;13.00
46302;PMS7003;32029;51.358;5.628;2024-03-17T06:03:08;23.67;22.00;18.33
46302;PMS7003;32029;51.358;5.628;2024-03-17T06:05:36;19.33;18.33;13.00
46302;PMS7003;32029;51.358;5.628;2024-03-17T06:08:04;22.00;19.33;16.00
46302;PMS7003;32029;51.358;5.628;2024-03-17T06:10:32;19.33;19.33;15.00
46302;PMS7003;32029;51.358;5.628;2024-03-17T06:12:59;26.33;20.00;14.67
46302;PMS7003;32029;51.358;5.628;2024-03-17T06:15:27;21.67;21.67;15.33
46302;PMS7003;32029;51.358;5.628;2024-03-17T06:17:54;23.50;21.50;16.00
46302;PMS7003;32029;51.358;5.628;2024-03-17T06:20:23;26.00;26.00;18.00
46302;PMS7003;32029;51.358;5.628;2024-03-17T06:22:54;11.60;9.80;2.20
46302;PMS7003;32029;51.358;5.628;2024-03-17T06:25:22;20.50;20.50;15.00
46302;PMS7003;32029;51.358;5.628;2024-03-17T06:27:50;21.00;20.00;15.50
46302;PMS7003;32029;51.358;5.628;2024-03-17T06:30:18;23.00;22.00;16.00
46302;PMS7003;32029;51.358;5.628;2024-03-17T06:32:45;19.67;17.67;14.33
46302;PMS7003;32029;51.358;5.628;2024-03-17T06:35:13;22.67;21.33;16.33
46302;PMS7003;32029;51.358;5.628;2024-03-17T06:37:44;21.00;21.00;14.00
46302;PMS7003;32029;51.358;5.628;2024-03-17T06:40:12;19.50;17.50;12.00
46302;PMS7003;32029;51.358;5.628;2024-03-17T06:42:41;21.33;19.33;14.33
46302;PMS7003;32029;51.358;5.628;2024-03-17T06:45:09;25.00;22.00;16.00
46302;PMS7003;32029;51.358;5.628;2024-03-17T06:47:37;22.50;21.00;15.00
46302;PMS7003;32029;51.358;5.628;2024-03-17T06:50:04;18.00;16.67;12.33
46302;PMS7003;32029;51.358;5.628;2024-03-17T06:52:32;17.33;16.33;13.00
46302;PMS7003;32029;51.358;5.628;2024-03-17T06:54:59;20.00;20.00;13.00
46302;PMS7003;32029;51.358;5.628;2024-03-17T06:57:27;16.33;16.33;12.67
46302;PMS7003;32029;51.358;5.628;2024-03-17T06:59:54;19.67;17.67;13.33
46302;PMS7003;32029;51.358;5.628;2024-03-17T07:02:21;20.50;15.50;12.00
46302;PMS7003;32029;51.358;5.628;2024-03-17T07:04:48;18.67;16.33;13.00
46302;PMS7003;32029;51.358;5.628;2024-03-17T07:07:16;13.17;11.83;8.50
46302;PMS7003;32029;51.358;5.628;2024-03-17T07:09:43;19.00;18.00;12.67
46302;PMS7003;32029;51.358;5.628;2024-03-17T07:12:10;17.67;15.33;11.00
46302;PMS7003;32029;51.358;5.628;2024-03-17T07:14:37;17.00;15.67;11.67
46302;PMS7003;32029;51.358;5.628;2024-03-17T07:17:04;17.00;13.00;9.67
46302;PMS7003;32029;51.358;5.628;2024-03-17T07:19:31;15.67;15.67;11.67
46302;PMS7003;32029;51.358;5.628;2024-03-17T07:21:59;14.67;14.67;11.33
46302;PMS7003;32029;51.358;5.628;2024-03-17T07:24:26;14.67;13.67;11.00
46302;PMS7003;32029;51.358;5.628;2024-03-17T07:26:53;18.33;16.33;12.33
46302;PMS7003;32029;51.358;5.628;2024-03-17T07:29:20;12.00;11.67;8.00
46302;PMS7003;32029;51.358;5.628;2024-03-17T07:31:48;13.40;10.00;6.40
46302;PMS7003;32029;51.358;5.628;2024-03-17T07:34:15;15.67;14.67;10.67
46302;PMS7003;32029;51.358;5.628;2024-03-17T07:36:42;17.00;13.67;10.67
46302;PMS7003;32029;51.358;5.628;2024-03-17T07:39:10;12.67;10.67;9.00
46302;PMS7003;32029;51.358;5.628;2024-03-17T07:41:39;13.40;9.60;7.60
46302;PMS7003;32029;51.358;5.628;2024-03-17T07:44:06;9.67;8.67;7.33
46302;PMS7003;32029;51.358;5.628;2024-03-17T07:46:33;12.33;12.00;8.00
46302;PMS7003;32029;51.358;5.628;2024-03-17T07:49:00;14.00;11.00;9.00
46302;PMS7003;32029;51.358;5.628;2024-03-17T07:51:27;13.33;11.33;8.67
46302;PMS7003;32029;51.358;5.628;2024-03-17T07:53:54;15.00;12.33;9.67
46302;PMS7003;32029;51.358;5.628;2024-03-17T07:56:21;13.33;13.33;10.00
46302;PMS7003;32029;51.358;5.628;2024-03-17T07:58:48;10.67;10.00;8.67
46302;PMS7003;32029;51.358;5.628;2024-03-17T08:01:17;9.20;9.20;7.60
46302;PMS7003;32029;51.358;5.628;2024-03-17T08:03:46;8.80;8.80;5.00
46302;PMS7003;32029;51.358;5.628;2024-03-17T08:06:20;16.00;12.00;10.00
46302;PMS7003;32029;51.358;5.628;2024-03-17T08:08:47;12.33;12.33;8.00
46302;PMS7003;32029;51.358;5.628;2024-03-17T08:11:14;11.33;11.00;9.00
46302;PMS7003;32029;51.358;5.628;2024-03-17T08:13:41;15.33;11.00;9.33
46302;PMS7003;32029;51.358;5.628;2024-03-17T08:16:08;21.67;17.00;14.33
46302;PMS7003;32029;51.358;5.628;2024-03-17T08:18:35;11.00;9.00;7.33
46302;PMS7003;32029;51.358;5.628;2024-03-17T08:21:02;12.67;10.33;8.67
46302;PMS7003;32029;51.358;5.628;2024-03-17T08:23:31;10.00;10.00;7.00
46302;PMS7003;32029;51.358;5.628;2024-03-17T08:25:59;10.67;10.67;8.00
46302;PMS7003;32029;51.358;5.628;2024-03-17T08:28:28;9.60;9.60;8.20
46302;PMS7003;32029;51.358;5.628;2024-03-17T08:30:58;11.00;11.00;9.00
46302;PMS7003;32029;51.358;5.628;2024-03-17T08:33:27;9.20;6.80;6.00
46302;PMS7003;32029;51.358;5.628;2024-03-17T08:35:55;13.00;12.00;9.00
46302;PMS7003;32029;51.358;5.628;2024-03-17T08:38:30;5.60;5.60;4.20
46302;PMS7003;32029;51.358;5.628;2024-03-17T08:41:05;14.33;11.33;9.00
46302;PMS7003;32029;51.358;5.628;2024-03-17T08:43:33;13.00;12.00;9.33
46302;PMS7003;32029;51.358;5.628;2024-03-17T08:46:05;13.33;11.33;9.00
46302;PMS7003;32029;51.358;5.628;2024-03-17T08:48:34;11.00;9.00;6.67
46302;PMS7003;32029;51.358;5.628;2024-03-17T08:51:02;14.33;12.00;9.00
46302;PMS7003;32029;51.358;5.628;2024-03-17T08:53:32;11.00;10.00;6.00
46302;PMS7003;32029;51.358;5.628;2024-03-17T08:56:02;13.20;11.00;7.80
46302;PMS7003;32029;51.358;5.628;2024-03-17T08:58:31;16.00;12.00;10.00
46302;PMS7003;32029;51.358;5.628;2024-03-17T09:00:58;13.00;11.33;8.33
46302;PMS7003;32029;51.358;5.628;2024-03-17T09:03:29;10.67;9.00;6.00
46302;PMS7003;32029;51.358;5.628;2024-03-17T09:05:55;11.00;10.67;8.00
46302;PMS7003;32029;51.358;5.628;2024-03-17T09:08:23;14.00;11.67;9.00
46302;PMS7003;32029;51.358;5.628;2024-03-17T09:10:53;14.00;11.83;9.67
46302;PMS7003;32029;51.358;5.628;2024-03-17T09:13:24;11.40;10.60;7.20
46302;PMS7003;32029;51.358;5.628;2024-03-17T09:15:53;13.00;11.00;8.67
46302;PMS7003;32029;51.358;5.628;2024-03-17T09:18:21;11.67;11.67;9.00
46302;PMS7003;32029;51.358;5.628;2024-03-17T09:20:57;10.60;9.00;6.00
46302;PMS7003;32029;51.358;5.628;2024-03-17T09:23:31;9.60;8.00;5.00
46302;PMS7003;32029;51.358;5.628;2024-03-17T09:26:01;10.67;10.67;8.33
46302;PMS7003;32029;51.358;5.628;2024-03-17T09:28:30;14.67;12.67;8.67
46302;PMS7003;32029;51.358;5.628;2024-03-17T09:30:58;6.20;6.20;4.60
46302;PMS7003;32029;51.358;5.628;2024-03-17T09:33:26;10.00;7.33;5.33
46302;PMS7003;32029;51.358;5.628;2024-03-17T09:38:28;12.67;10.33;8.00
46302;PMS7003;32029;51.358;5.628;2024-03-17T09:40:56;13.00;11.33;9.00
46302;PMS7003;32029;51.358;5.628;2024-03-17T09:43:29;14.67;13.00;9.00
46302;PMS7003;32029;51.358;5.628;2024-03-17T09:46:01;10.67;10.33;7.67
46302;PMS7003;32029;51.358;5.628;2024-03-17T09:48:29;12.00;10.67;7.00
46302;PMS7003;32029;51.358;5.628;2024-03-17T09:53:28;13.00;13.00;9.00
46302;PMS7003;32029;51.358;5.628;2024-03-17T09:56:03;11.33;11.33;8.00
46302;PMS7003;32029;51.358;5.628;2024-03-17T09:58:36;10.60;8.20;5.80
46302;PMS7003;32029;51.358;5.628;2024-03-17T10:01:04;11.60;10.00;8.20
46302;PMS7003;32029;51.358;5.628;2024-03-17T10:03:48;12.33;9.00;7.00
46302;PMS7003;32029;51.358;5.628;2024-03-17T10:06:20;9.60;8.60;6.80
46302;PMS7003;32029;51.358;5.628;2024-03-17T10:08:49;10.33;10.33;8.00
46302;PMS7003;32029;51.358;5.628;2024-03-17T10:11:18;9.00;9.00;7.00
46302;PMS7003;32029;51.358;5.628;2024-03-17T10:13:49;7.20;5.80;5.00
46302;PMS7003;32029;51.358;5.628;2024-03-17T10:16:26;9.33;9.00;7.00
46302;PMS7003;32029;51.358;5.628;2024-03-17T10:22:00;13.00;11.00;9.00
46302;PMS7003;32029;51.358;5.628;2024-03-17T10:24:28;10.00;10.00;8.00
46302;PMS7003;32029;51.358;5.628;2024-03-17T10:26:56;12.33;10.00;7.67
46302;PMS7003;32029;51.358;5.628;2024-03-17T10:29:25;11.00;11.00;7.67
46302;PMS7003;32029;51.358;5.628;2024-03-17T10:31:55;11.00;11.00;8.00
46302;PMS7003;32029;51.358;5.628;2024-03-17T10:34:25;10.80;10.80;8.20
46302;PMS7003;32029;51.358;5.628;2024-03-17T10:39:38;14.00;9.00;7.67
46302;PMS7003;32029;51.358;5.628;2024-03-17T10:42:07;11.33;11.33;9.67
46302;PMS7003;32029;51.358;5.628;2024-03-17T10:44:36;12.67;12.67;9.00
46302;PMS7003;32029;51.358;5.628;2024-03-17T10:47:05;9.67;9.67;7.33
46302;PMS7003;32029;51.358;5.628;2024-03-17T10:49:39;10.00;9.00;6.67
46302;PMS7003;32029;51.358;5.628;2024-03-17T10:52:08;11.00;11.00;9.00
46302;PMS7003;32029;51.358;5.628;2024-03-17T10:54:49;11.00;8.33;7.00
46302;PMS7003;32029;51.358;5.628;2024-03-17T11:00:09;10.00;8.80;7.00
46302;PMS7003;32029;51.358;5.628;2024-03-17T11:02:44;9.33;9.33;8.00
46302;PMS7003;32029;51.358;5.628;2024-03-17T11:05:15;9.33;9.00;7.00
46302;PMS7003;32029;51.358;5.628;2024-03-17T11:07:48;9.67;9.67;7.00
46302;PMS7003;32029;51.358;5.628;2024-03-17T11:12:50;11.67;10.00;7.67
46302;PMS7003;32029;51.358;5.628;2024-03-17T11:20:42;11.00;11.00;8.00
46302;PMS7003;32029;51.358;5.628;2024-03-17T11:23:31;11.00;11.00;7.00
46302;PMS7003;32029;51.358;5.628;2024-03-17T11:25:58;14.00;11.00;9.00
46302;PMS7003;32029;51.358;5.628;2024-03-17T11:34:26;10.40;10.40;8.20
46302;PMS7003;32029;51.358;5.628;2024-03-17T11:36:54;11.67;11.33;8.00
46302;PMS7003;32029;51.358;5.628;2024-03-17T11:39:56;11.33;11.33;8.33
46302;PMS7003;32029;51.358;5.628;2024-03-17T11:42:18;11.00;10.00;7.33
46302;PMS7003;32029;51.358;5.628;2024-03-17T11:44:57;12.00;10.33;9.00
46302;PMS7003;32029;51.358;5.628;2024-03-17T11:47:32;12.00;9.67;6.00
46302;PMS7003;32029;51.358;5.628;2024-03-17T11:50:05;7.60;7.00;6.20
46302;PMS7003;32029;51.358;5.628;2024-03-17T11:52:36;9.60;9.60;7.80
46302;PMS7003;32029;51.358;5.628;2024-03-17T11:55:03;12.00;11.33;8.00
46302;PMS7003;32029;51.358;5.628;2024-03-17T11:57:30;11.00;9.00;8.00
46302;PMS7003;32029;51.358;5.628;2024-03-17T11:59:57;10.33;9.33;7.67
46302;PMS7003;32029;51.358;5.628;2024-03-17T12:02:30;13.33;10.67;7.33
46302;PMS7003;32029;51.358;5.628;2024-03-17T12:05:02;8.20;7.20;5.00
46302;PMS7003;32029;51.358;5.628;2024-03-17T12:07:32;12.00;9.67;7.00
46302;PMS7003;32029;51.358;5.628;2024-03-17T12:10:00;11.00;9.67;7.00
46302;PMS7003;32029;51.358;5.628;2024-03-17T12:12:29;11.67;11.00;7.67
46302;PMS7003;32029;51.358;5.628;2024-03-17T12:15:03;10.67;8.00;7.00
46302;PMS7003;32029;51.358;5.628;2024-03-17T12:17:43;10.20;10.00;8.00
46302;PMS7003;32029;51.358;5.628;2024-03-17T12:20:16;9.00;9.00;7.00
46302;PMS7003;32029;51.358;5.628;2024-03-17T12:22:45;11.00;9.00;7.00
46302;PMS7003;32029;51.358;5.628;2024-03-17T12:25:16;8.67;7.67;7.00
46302;PMS7003;32029;51.358;5.628;2024-03-17T12:27:44;11.00;9.00;7.00
46302;PMS7003;32029;51.358;5.628;2024-03-17T12:30:12;10.33;7.33;6.00
46302;PMS7003;32029;51.358;5.628;2024-03-17T12:32:39;9.00;8.67;7.00
46302;PMS7003;32029;51.358;5.628;2024-03-17T12:35:12;6.33;6.33;5.33
46302;PMS7003;32029;51.358;5.628;2024-03-17T12:37:42;5.60;5.60;3.80
46302;PMS7003;32029;51.358;5.628;2024-03-17T12:40:18;11.20;9.60;7.60
46302;PMS7003;32029;51.358;5.628;2024-03-17T12:42:48;10.00;10.00;6.20
46302;PMS7003;32029;51.358;5.628;2024-03-17T12:45:21;8.60;7.20;6.00
46302;PMS7003;32029;51.358;5.628;2024-03-17T12:47:50;11.67;10.50;6.33
46302;PMS7003;32029;51.358;5.628;2024-03-17T12:50:20;9.60;9.20;7.20
46302;PMS7003;32029;51.358;5.628;2024-03-17T12:52:52;9.00;9.00;7.00
46302;PMS7003;32029;51.358;5.628;2024-03-17T12:55:21;10.20;8.00;7.00
46302;PMS7003;32029;51.358;5.628;2024-03-17T12:58:09;8.20;7.20;6.00
46302;PMS7003;32029;51.358;5.628;2024-03-17T13:00:58;9.00;9.00;7.00
46302;PMS7003;32029;51.358;5.628;2024-03-17T13:03:39;11.33;10.00;8.00
46302;PMS7003;32029;51.358;5.628;2024-03-17T13:06:08;9.20;9.20;7.80
46302;PMS7003;32029;51.358;5.628;2024-03-17T13:08:37;10.00;9.00;8.00
46302;PMS7003;32029;51.358;5.628;2024-03-17T13:11:08;10.20;9.00;7.00
46302;PMS7003;32029;51.358;5.628;2024-03-17T13:13:35;14.00;9.00;7.00
46302;PMS7003;32029;51.358;5.628;2024-03-17T13:16:03;12.40;9.00;7.20
46302;PMS7003;32029;51.358;5.628;2024-03-17T13:18:32;10.00;10.00;8.00
46302;PMS7003;32029;51.358;5.628;2024-03-17T13:20:59;10.67;10.00;7.00
46302;PMS7003;32029;51.358;5.628;2024-03-17T13:23:28;9.80;9.80;8.20
46302;PMS7003;32029;51.358;5.628;2024-03-17T13:25:57;8.60;6.20;5.00
46302;PMS7003;32029;51.358;5.628;2024-03-17T13:28:25;10.00;8.60;7.80
46302;PMS7003;32029;51.358;5.628;2024-03-17T13:30:53;10.40;10.40;8.40
46302;PMS7003;32029;51.358;5.628;2024-03-17T13:33:21;8.40;8.40;6.20
46302;PMS7003;32029;51.358;5.628;2024-03-17T13:35:48;10.33;9.67;7.67
46302;PMS7003;32029;51.358;5.628;2024-03-17T13:38:16;6.40;6.40;5.20
46302;PMS7003;32029;51.358;5.628;2024-03-17T13:40:43;10.80;10.80;7.60
46302;PMS7003;32029;51.358;5.628;2024-03-17T13:43:10;9.33;8.33;6.67
46302;PMS7003;32029;51.358;5.628;2024-03-17T13:45:39;6.80;6.80;5.20
46302;PMS7003;32029;51.358;5.628;2024-03-17T13:48:10;6.83;6.83;5.00
46302;PMS7003;32029;51.358;5.628;2024-03-17T13:50:39;7.40;7.20;6.00
46302;PMS7003;32029;51.358;5.628;2024-03-17T13:53:09;6.00;6.00;5.00
46302;PMS7003;32029;51.358;5.628;2024-03-17T13:55:37;6.80;6.80;5.80
46302;PMS7003;32029;51.358;5.628;2024-03-17T13:58:05;5.80;5.80;4.60
46302;PMS7003;32029;51.358;5.628;2024-03-17T14:00:33;3.60;3.60;3.00
46302;PMS7003;32029;51.358;5.628;2024-03-17T14:03:06;6.80;4.80;3.60
46302;PMS7003;32029;51.358;5.628;2024-03-17T14:05:34;4.40;4.40;3.40
46302;PMS7003;32029;51.358;5.628;2024-03-17T14:08:03;4.20;4.00;3.40
46302;PMS7003;32029;51.358;5.628;2024-03-17T14:10:31;3.00;3.00;2.60
46302;PMS7003;32029;51.358;5.628;2024-03-17T14:12:59;4.00;3.40;3.00
46302;PMS7003;32029;51.358;5.628;2024-03-17T14:15:27;2.60;2.40;2.00
46302;PMS7003;32029;51.358;5.628;2024-03-17T14:17:57;3.00;2.40;2.00
46302;PMS7003;32029;51.358;5.628;2024-03-17T14:20:28;3.60;3.00;2.00
46302;PMS7003;32029;51.358;5.628;2024-03-17T14:22:57;2.40;2.20;1.40
46302;PMS7003;32029;51.358;5.628;2024-03-17T14:25:39;6.40;4.00;3.00
46302;PMS7003;32029;51.358;5.628;2024-03-17T14:28:06;4.80;3.80;3.00
46302;PMS7003;32029;51.358;5.628;2024-03-17T14:30:34;4.00;3.40;3.00
46302;PMS7003;32029;51.358;5.628;2024-03-17T14:33:03;3.80;2.40;2.20
46302;PMS7003;32029;51.358;5.628;2024-03-17T14:35:32;3.00;3.00;2.60